createdAt,value
2017-11-29T00:00:55.624Z,139.6
2017-11-29T00:10:55.367Z,117.7
2017-11-29T00:20:55.265Z,107.5
2017-11-29T00:30:55.027Z,109.2
2017-11-29T00:40:54.763Z,146.4
2017-11-29T00:50:55.452Z,142.5
2017-11-29T01:00:55.592Z,149.6
2017-11-29T01:10:55.316Z,141.5
2017-11-29T01:20:55.429Z,117.6
2017-11-29T01:30:55.166Z,130.4
2017-11-29T01:40:54.881Z,123.9
2017-11-29T01:50:56.217Z,116.8
2017-11-29T02:00:55.339Z,118.6
2017-11-29T02:10:55.162Z,117.6
2017-11-29T02:20:55.406Z,122.6
2017-11-29T02:30:55.053Z,115.2
2017-11-29T02:40:55.526Z,68.9
2017-11-29T02:50:55.286Z,56.3
2017-11-29T03:00:55.261Z,51.5
2017-11-29T03:10:54.947Z,55.7
2017-11-29T03:20:54.831Z,47.2
2017-11-29T03:30:55.539Z,49.6
2017-11-29T03:40:55.289Z,43.2
2017-11-29T03:50:55.136Z,50.8
2017-11-29T04:00:55.730Z,56.0
2017-11-29T04:10:55.492Z,57.5
2017-11-29T04:20:56.376Z,66.7
2017-11-29T04:30:55.180Z,68.9
2017-11-29T04:40:54.936Z,63.3
2017-11-29T04:50:55.683Z,60.9
2017-11-29T05:00:55.724Z,69.0
2017-11-29T05:10:55.586Z,69.8
2017-11-29T05:20:55.632Z,67.4
2017-11-29T05:30:55.151Z,68.8
2017-11-29T05:40:55.209Z,69.8
2017-11-29T05:50:55.018Z,73.5
2017-11-29T06:00:54.692Z,58.6
2017-11-29T06:10:56.314Z,66.6
2017-11-29T06:20:55.284Z,65.1
2017-11-29T06:30:55.036Z,67.7
2017-11-29T06:40:54.793Z,66.8
2017-11-29T06:50:55.938Z,66.3
2017-11-29T07:00:55.593Z,67.4
2017-11-29T07:10:55.280Z,63.5
2017-11-29T07:20:55.637Z,68.8
2017-11-29T07:30:55.361Z,71.9
2017-11-29T07:40:55.437Z,72.2
2017-11-29T07:50:55.205Z,80.3
2017-11-29T08:00:54.919Z,72.9
2017-11-29T08:10:55.845Z,72.9
2017-11-29T08:20:55.234Z,73.6
2017-11-29T08:30:54.991Z,87.1
2017-11-29T08:40:54.771Z,86.2
2017-11-29T08:50:56.257Z,99.4
2017-11-29T09:00:55.252Z,87.0
2017-11-29T09:10:55.176Z,83.0
2017-11-29T09:20:55.070Z,99.7
2017-11-29T09:30:56.044Z,100.8
2017-11-29T09:40:54.809Z,102.0
2017-11-29T09:50:56.500Z,109.6
2017-11-29T10:00:55.246Z,94.7
2017-11-29T10:10:55.052Z,121.2
2017-11-29T10:20:55.204Z,100.9
2017-11-29T10:30:55.198Z,85.4
2017-11-29T10:40:55.241Z,84.0
2017-11-29T10:50:55.596Z,92.5
2017-11-29T11:00:55.576Z,82.5
2017-11-29T11:10:55.332Z,84.7
2017-11-29T11:20:55.400Z,88.0
2017-11-29T11:30:55.124Z,87.9
2017-11-29T11:40:55.031Z,83.1
2017-11-29T11:50:55.015Z,93.5
2017-11-29T12:00:55.609Z,79.2
2017-11-29T12:10:55.323Z,83.7
2017-11-29T12:20:56.120Z,76.4
2017-11-29T12:30:55.124Z,76.4
2017-11-29T12:40:54.844Z,93.0
2017-11-29T12:50:55.558Z,80.1
2017-11-29T13:00:55.256Z,81.8
2017-11-29T13:10:55.346Z,88.3
2017-11-29T13:20:55.416Z,96.3
2017-11-29T13:30:54.985Z,111.2
2017-11-29T13:40:54.696Z,105.7
2017-11-29T13:50:55.404Z,92.7
2017-11-29T14:00:55.837Z,104.8
2017-11-29T14:10:55.868Z,152.1
2017-11-29T14:20:54.971Z,117.9
2017-11-29T14:30:54.679Z,112.7
2017-11-29T14:40:55.453Z,110.1
2017-11-29T14:50:55.435Z,118.2
2017-11-29T15:00:55.130Z,105.3
2017-11-29T15:10:54.853Z,101.9
2017-11-29T15:20:54.664Z,103.7
2017-11-29T15:30:55.611Z,95.0
2017-11-29T15:40:55.349Z,100.5
2017-11-29T15:50:55.098Z,94.5
2017-11-29T16:00:55.731Z,107.4
2017-11-29T16:10:56.087Z,109.8
2017-11-29T16:20:55.279Z,111.0
2017-11-29T16:30:55.005Z,147.2
2017-11-29T16:40:54.837Z,156.0
2017-11-29T16:50:55.593Z,166.6
2017-11-29T17:00:55.619Z,169.0
2017-11-29T17:10:55.523Z,195.4
2017-11-29T17:20:55.730Z,141.1
2017-11-29T17:30:55.464Z,216.6
2017-11-29T17:40:55.597Z,174.6
2017-11-29T17:50:55.376Z,181.2
2017-11-29T18:00:55.710Z,195.9
2017-11-29T18:10:55.387Z,179.6
2017-11-29T18:20:55.305Z,204.2
2017-11-29T18:30:55.558Z,191.0
2017-11-29T18:40:55.575Z,164.2
2017-11-29T18:50:56.193Z,151.4
2017-11-29T19:00:55.373Z,133.5
2017-11-29T19:10:55.579Z,137.6
2017-11-29T19:20:55.930Z,158.7
2017-11-29T19:30:55.921Z,186.1
2017-11-29T19:40:55.990Z,229.3
2017-11-29T19:50:54.704Z,222.4
2017-11-29T20:00:55.396Z,201.3
2017-11-29T20:10:55.571Z,213.1
2017-11-29T20:20:55.830Z,211.9
2017-11-29T20:30:56.024Z,179.7
2017-11-29T20:40:55.625Z,205.5
2017-11-29T20:50:55.490Z,173.4
2017-11-29T21:00:55.264Z,157.4
2017-11-29T21:10:55.035Z,150.9
2017-11-29T21:20:55.096Z,148.2
2017-11-29T21:30:54.779Z,141.4
2017-11-29T21:40:55.662Z,146.8
2017-11-29T21:50:55.418Z,144.9
2017-11-29T22:00:55.532Z,146.5
2017-11-29T22:10:55.364Z,150.9
2017-11-29T22:20:55.910Z,148.4
2017-11-29T22:30:55.654Z,152.4
2017-11-29T22:40:55.349Z,169.2
2017-11-29T22:50:55.442Z,181.4
2017-11-29T23:00:56.053Z,179.7
2017-11-29T23:10:55.289Z,166.9
2017-11-29T23:20:55.273Z,171.7
2017-11-29T23:30:55.254Z,157.7
2017-11-29T23:40:55.307Z,157.5
2017-11-29T23:50:55.545Z,154.4
